createdAt,value
2023-11-25T00:01:04.942Z,-0.29
2023-11-25T00:11:09.758Z,-0.07
2023-11-25T00:21:04.877Z,-0.26
2023-11-25T00:31:04.905Z,-0.45
2023-11-25T00:41:04.879Z,-0.63
2023-11-25T00:51:04.878Z,-0.79
2023-11-25T01:01:04.906Z,-0.98
2023-11-25T01:11:04.888Z,-1.23
2023-11-25T01:21:04.918Z,-1.35
2023-11-25T01:31:04.919Z,-1.73
2023-11-25T01:41:05.170Z,-1.87
2023-11-25T01:51:04.937Z,-1.88
2023-11-25T02:01:05.001Z,-1.84
2023-11-25T02:11:04.954Z,-1.97
2023-11-25T02:21:04.961Z,-1.98
2023-11-25T02:31:05.125Z,-1.82
2023-11-25T02:41:04.966Z,-1.71
2023-11-25T02:51:05.020Z,-1.65
2023-11-25T03:01:05.061Z,-1.49
2023-11-25T03:11:05.017Z,-1.5
2023-11-25T03:21:05.036Z,-1.36
2023-11-25T03:31:05.086Z,-1.7
2023-11-25T03:41:05.199Z,-1.84
2023-11-25T03:51:05.073Z,-2.05
2023-11-25T04:01:05.043Z,-2.16
2023-11-25T04:11:06.815Z,-2.27
2023-11-25T04:21:05.094Z,-2.16
2023-11-25T04:31:05.168Z,-2.03
2023-11-25T04:41:05.361Z,-1.78
2023-11-25T04:51:05.094Z,-1.62
2023-11-25T05:01:05.144Z,0.45
2023-11-25T05:11:05.313Z,0.84
2023-11-25T05:21:05.255Z,1.28
2023-11-25T05:31:05.260Z,1.08
2023-11-25T05:41:05.430Z,0.6
2023-11-25T05:51:05.132Z,0.04
2023-11-25T06:01:05.265Z,-0.33
2023-11-25T06:11:05.245Z,-0.3
2023-11-25T06:21:05.130Z,-0.26
2023-11-25T06:31:05.383Z,-0.34
2023-11-25T06:41:05.320Z,-0.37
2023-11-25T06:51:05.152Z,-0.25
2023-11-25T07:01:05.158Z,0.02
2023-11-25T07:11:05.134Z,0.81
2023-11-25T07:21:05.373Z,1.22
2023-11-25T07:31:05.330Z,1.52
2023-11-25T07:41:05.293Z,1.44
2023-11-25T07:51:05.325Z,1.7
2023-11-25T08:01:05.275Z,2.01
2023-11-25T08:11:05.296Z,1.88
2023-11-25T08:21:05.286Z,2.28
2023-11-25T08:31:05.343Z,2.87
2023-11-25T08:41:05.462Z,3.05
2023-11-25T08:51:07.333Z,3.47
2023-11-25T09:01:05.175Z,3.87
2023-11-25T09:11:05.194Z,3.87
2023-11-25T09:31:05.209Z,5.01
2023-11-25T09:41:05.213Z,5.71
2023-11-25T09:51:05.223Z,5.38
2023-11-25T10:01:05.187Z,5.45
2023-11-25T10:11:05.187Z,5.8
2023-11-25T10:21:05.169Z,6.03
2023-11-25T10:31:05.195Z,6.24
2023-11-25T10:41:05.256Z,6.54
2023-11-25T10:51:05.183Z,6.37
2023-11-25T11:01:05.198Z,5.71
2023-11-25T11:11:05.171Z,5.2
2023-11-25T11:21:05.196Z,4.84
2023-11-25T11:31:05.191Z,4.43
2023-11-25T11:41:05.190Z,4.34
2023-11-25T11:51:05.234Z,4.31
2023-11-25T12:01:05.193Z,4.26
2023-11-25T12:11:05.189Z,4.27
2023-11-25T12:21:05.174Z,4.3
2023-11-25T12:31:05.172Z,4.31
2023-11-25T12:41:05.207Z,4.37
2023-11-25T12:51:05.226Z,4.14
2023-11-25T13:01:05.192Z,4.12
2023-11-25T13:11:05.284Z,3.97
2023-11-25T13:21:05.202Z,3.93
2023-11-25T13:31:05.342Z,3.98
2023-11-25T13:41:05.262Z,3.96
2023-11-25T13:51:05.797Z,3.75
2023-11-25T14:01:05.232Z,3.71
2023-11-25T14:11:05.352Z,3.6
2023-11-25T14:21:05.329Z,3.36
2023-11-25T14:31:05.372Z,3.22
2023-11-25T14:41:05.402Z,2.95
2023-11-25T14:51:05.329Z,2.8
2023-11-25T15:01:05.353Z,2.88
2023-11-25T15:11:05.551Z,2.57
2023-11-25T15:21:05.406Z,2.47
2023-11-25T15:31:05.381Z,2.13
2023-11-25T15:41:05.569Z,1.52
2023-11-25T15:51:05.386Z,1.38
2023-11-25T16:11:05.510Z,1.38
2023-11-25T16:21:05.249Z,1.12
2023-11-25T16:31:05.537Z,0.99
2023-11-25T16:41:05.537Z,0.26
2023-11-25T16:51:05.442Z,-0.2
2023-11-25T17:01:05.433Z,-0.46
2023-11-25T17:11:05.486Z,-0.59
2023-11-25T17:21:05.392Z,-0.73
2023-11-25T17:31:05.297Z,-0.84
2023-11-25T17:41:05.297Z,-1.02
2023-11-25T17:51:05.301Z,-1.32
2023-11-25T18:01:05.584Z,-1.58
2023-11-25T18:11:05.482Z,-1.82
2023-11-25T18:21:05.446Z,-2.01
2023-11-25T18:31:05.508Z,-1.97
2023-11-25T18:41:05.523Z,-2.07
2023-11-25T18:51:05.558Z,-2.2
2023-11-25T19:01:05.395Z,-2.25
2023-11-25T19:11:05.430Z,-2.38
2023-11-25T19:21:05.370Z,-2.13
2023-11-25T19:31:05.368Z,-1.67
2023-11-25T19:41:05.404Z,-1.77
2023-11-25T19:51:05.404Z,-1.99
2023-11-25T20:01:05.441Z,-2.19
2023-11-25T20:11:05.448Z,-2.51
2023-11-25T20:21:05.421Z,-2.58
2023-11-25T20:31:05.450Z,-2.8
2023-11-25T20:41:05.501Z,-2.86
2023-11-25T20:51:05.497Z,-3.03
2023-11-25T21:01:05.452Z,-2.98
2023-11-25T21:11:05.487Z,-3.08
2023-11-25T21:21:05.492Z,-3.14
2023-11-25T21:31:05.499Z,-3.17
2023-11-25T21:41:05.569Z,-3.25
2023-11-25T21:51:05.539Z,-3.33
2023-11-25T22:01:05.565Z,-3.42
2023-11-25T22:11:05.578Z,-3.32
2023-11-25T22:21:05.535Z,-3.36
2023-11-25T22:31:05.539Z,-3.46
2023-11-25T22:41:05.649Z,-3.55
2023-11-25T22:51:05.561Z,-3.54
2023-11-25T23:01:05.621Z,-3.67
2023-11-25T23:11:05.659Z,-3.7
2023-11-25T23:21:05.618Z,-3.51
2023-11-25T23:31:05.773Z,-3.59
2023-11-25T23:41:05.733Z,-3.66
2023-11-25T23:51:05.827Z,-3.67
